sensor_id;sensor_type;location;lat;lon;timestamp;P1;durP1;ratioP1;P2;durP2;ratioP2
59786;SDS011;45672;51.612;5.536;2023-03-09T00:00:54;16.27;;;11.57;;
59786;SDS011;45672;51.612;5.536;2023-03-09T00:03:19;29.80;;;18.13;;
59786;SDS011;45672;51.612;5.536;2023-03-09T00:05:53;30.40;;;16.90;;
59786;SDS011;45672;51.612;5.536;2023-03-09T00:08:20;26.77;;;16.70;;
59786;SDS011;45672;51.612;5.536;2023-03-09T00:10:45;25.98;;;15.63;;
59786;SDS011;45672;51.612;5.536;2023-03-09T00:13:15;30.27;;;18.33;;
59786;SDS011;45672;51.612;5.536;2023-03-09T00:15:40;28.88;;;17.60;;
59786;SDS011;45672;51.612;5.536;2023-03-09T00:18:06;26.60;;;17.13;;
59786;SDS011;45672;51.612;5.536;2023-03-09T00:20:31;28.17;;;17.38;;
59786;SDS011;45672;51.612;5.536;2023-03-09T00:22:56;29.08;;;17.80;;
59786;SDS011;45672;51.612;5.536;2023-03-09T00:25:22;20.95;;;13.20;;
59786;SDS011;45672;51.612;5.536;2023-03-09T00:27:48;27.02;;;16.75;;
59786;SDS011;45672;51.612;5.536;2023-03-09T00:30:16;23.25;;;14.00;;
59786;SDS011;45672;51.612;5.536;2023-03-09T00:32:42;31.15;;;16.83;;
59786;SDS011;45672;51.612;5.536;2023-03-09T00:35:07;26.60;;;16.63;;
59786;SDS011;45672;51.612;5.536;2023-03-09T00:37:33;29.30;;;17.95;;
59786;SDS011;45672;51.612;5.536;2023-03-09T00:39:59;29.08;;;17.08;;
59786;SDS011;45672;51.612;5.536;2023-03-09T00:42:25;28.05;;;17.65;;
59786;SDS011;45672;51.612;5.536;2023-03-09T00:44:50;34.03;;;17.95;;
59786;SDS011;45672;51.612;5.536;2023-03-09T00:47:16;28.50;;;17.00;;
59786;SDS011;45672;51.612;5.536;2023-03-09T00:49:42;28.08;;;17.70;;
59786;SDS011;45672;51.612;5.536;2023-03-09T00:52:07;26.83;;;16.73;;
59786;SDS011;45672;51.612;5.536;2023-03-09T00:54:33;28.58;;;16.85;;
59786;SDS011;45672;51.612;5.536;2023-03-09T00:57:00;29.33;;;17.30;;
59786;SDS011;45672;51.612;5.536;2023-03-09T00:59:27;33.50;;;17.90;;
59786;SDS011;45672;51.612;5.536;2023-03-09T01:01:52;31.25;;;18.80;;
59786;SDS011;45672;51.612;5.536;2023-03-09T01:04:18;31.15;;;17.33;;
59786;SDS011;45672;51.612;5.536;2023-03-09T01:06:43;34.45;;;19.27;;
59786;SDS011;45672;51.612;5.536;2023-03-09T01:09:08;32.55;;;19.17;;
59786;SDS011;45672;51.612;5.536;2023-03-09T01:11:35;32.15;;;17.67;;
59786;SDS011;45672;51.612;5.536;2023-03-09T01:14:01;34.65;;;19.48;;
59786;SDS011;45672;51.612;5.536;2023-03-09T01:16:26;29.90;;;16.75;;
59786;SDS011;45672;51.612;5.536;2023-03-09T01:18:51;35.65;;;19.98;;
59786;SDS011;45672;51.612;5.536;2023-03-09T01:21:17;36.80;;;19.52;;
59786;SDS011;45672;51.612;5.536;2023-03-09T01:23:42;34.92;;;19.35;;
59786;SDS011;45672;51.612;5.536;2023-03-09T01:26:07;32.08;;;18.45;;
59786;SDS011;45672;51.612;5.536;2023-03-09T01:28:33;33.72;;;19.63;;
59786;SDS011;45672;51.612;5.536;2023-03-09T01:30:59;34.22;;;19.63;;
59786;SDS011;45672;51.612;5.536;2023-03-09T01:33:25;30.70;;;16.70;;
59786;SDS011;45672;51.612;5.536;2023-03-09T01:35:51;36.28;;;19.23;;
59786;SDS011;45672;51.612;5.536;2023-03-09T01:38:16;33.47;;;18.83;;
59786;SDS011;45672;51.612;5.536;2023-03-09T01:40:43;31.65;;;17.90;;
59786;SDS011;45672;51.612;5.536;2023-03-09T01:48:13;32.75;;;19.35;;
59786;SDS011;45672;51.612;5.536;2023-03-09T01:50:38;32.70;;;18.58;;
59786;SDS011;45672;51.612;5.536;2023-03-09T01:53:08;36.53;;;18.55;;
59786;SDS011;45672;51.612;5.536;2023-03-09T01:55:38;29.85;;;17.90;;
59786;SDS011;45672;51.612;5.536;2023-03-09T01:58:12;31.35;;;18.52;;
59786;SDS011;45672;51.612;5.536;2023-03-09T02:00:41;32.40;;;18.70;;
59786;SDS011;45672;51.612;5.536;2023-03-09T02:03:13;35.22;;;19.70;;
59786;SDS011;45672;51.612;5.536;2023-03-09T02:08:07;31.67;;;17.33;;
59786;SDS011;45672;51.612;5.536;2023-03-09T02:10:37;34.63;;;18.75;;
59786;SDS011;45672;51.612;5.536;2023-03-09T02:13:35;33.55;;;19.67;;
59786;SDS011;45672;51.612;5.536;2023-03-09T02:16:03;35.03;;;19.08;;
59786;SDS011;45672;51.612;5.536;2023-03-09T02:18:29;36.28;;;19.05;;
59786;SDS011;45672;51.612;5.536;2023-03-09T02:21:06;38.17;;;20.50;;
59786;SDS011;45672;51.612;5.536;2023-03-09T02:23:41;36.20;;;20.10;;
59786;SDS011;45672;51.612;5.536;2023-03-09T02:26:28;40.85;;;20.73;;
59786;SDS011;45672;51.612;5.536;2023-03-09T02:28:59;35.13;;;19.08;;
59786;SDS011;45672;51.612;5.536;2023-03-09T02:31:25;34.90;;;19.75;;
59786;SDS011;45672;51.612;5.536;2023-03-09T02:33:51;35.22;;;20.77;;
59786;SDS011;45672;51.612;5.536;2023-03-09T02:36:16;36.45;;;19.70;;
59786;SDS011;45672;51.612;5.536;2023-03-09T02:38:42;37.72;;;21.75;;
59786;SDS011;45672;51.612;5.536;2023-03-09T02:41:08;40.92;;;21.38;;
59786;SDS011;45672;51.612;5.536;2023-03-09T02:43:36;38.00;;;20.88;;
59786;SDS011;45672;51.612;5.536;2023-03-09T02:46:07;39.08;;;21.20;;
59786;SDS011;45672;51.612;5.536;2023-03-09T02:48:33;39.55;;;21.25;;
59786;SDS011;45672;51.612;5.536;2023-03-09T02:50:58;43.60;;;21.88;;
59786;SDS011;45672;51.612;5.536;2023-03-09T02:53:24;40.65;;;21.50;;
59786;SDS011;45672;51.612;5.536;2023-03-09T02:55:49;43.28;;;22.90;;
59786;SDS011;45672;51.612;5.536;2023-03-09T02:58:14;44.15;;;21.77;;
59786;SDS011;45672;51.612;5.536;2023-03-09T03:00:40;42.22;;;22.42;;
59786;SDS011;45672;51.612;5.536;2023-03-09T03:03:08;46.83;;;22.65;;
59786;SDS011;45672;51.612;5.536;2023-03-09T03:05:50;43.35;;;22.92;;
59786;SDS011;45672;51.612;5.536;2023-03-09T03:08:16;46.88;;;23.23;;
59786;SDS011;45672;51.612;5.536;2023-03-09T03:10:41;47.95;;;24.02;;
59786;SDS011;45672;51.612;5.536;2023-03-09T03:13:07;47.78;;;24.85;;
59786;SDS011;45672;51.612;5.536;2023-03-09T03:15:32;42.10;;;22.48;;
59786;SDS011;45672;51.612;5.536;2023-03-09T03:17:58;49.55;;;24.88;;
59786;SDS011;45672;51.612;5.536;2023-03-09T03:20:23;48.70;;;23.80;;
59786;SDS011;45672;51.612;5.536;2023-03-09T03:22:49;46.60;;;24.65;;
59786;SDS011;45672;51.612;5.536;2023-03-09T03:25:15;52.95;;;25.08;;
59786;SDS011;45672;51.612;5.536;2023-03-09T03:27:41;44.55;;;21.67;;
59786;SDS011;45672;51.612;5.536;2023-03-09T03:30:07;51.58;;;26.23;;
59786;SDS011;45672;51.612;5.536;2023-03-09T03:32:33;50.03;;;23.95;;
59786;SDS011;45672;51.612;5.536;2023-03-09T03:34:58;45.80;;;23.95;;
59786;SDS011;45672;51.612;5.536;2023-03-09T03:37:24;49.05;;;25.10;;
59786;SDS011;45672;51.612;5.536;2023-03-09T03:39:49;55.25;;;26.00;;
59786;SDS011;45672;51.612;5.536;2023-03-09T03:42:14;50.53;;;24.77;;
59786;SDS011;45672;51.612;5.536;2023-03-09T03:44:40;48.08;;;22.77;;
59786;SDS011;45672;51.612;5.536;2023-03-09T03:47:05;48.83;;;24.02;;
59786;SDS011;45672;51.612;5.536;2023-03-09T03:49:30;48.55;;;23.73;;
59786;SDS011;45672;51.612;5.536;2023-03-09T03:51:56;50.78;;;24.40;;
59786;SDS011;45672;51.612;5.536;2023-03-09T03:54:21;54.28;;;25.35;;
59786;SDS011;45672;51.612;5.536;2023-03-09T03:56:46;51.70;;;25.77;;
59786;SDS011;45672;51.612;5.536;2023-03-09T03:59:12;54.40;;;25.05;;
59786;SDS011;45672;51.612;5.536;2023-03-09T04:01:37;59.47;;;27.42;;
59786;SDS011;45672;51.612;5.536;2023-03-09T04:04:02;60.70;;;27.45;;
59786;SDS011;45672;51.612;5.536;2023-03-09T04:06:28;58.72;;;26.83;;
59786;SDS011;45672;51.612;5.536;2023-03-09T04:08:55;62.08;;;27.80;;
59786;SDS011;45672;51.612;5.536;2023-03-09T04:11:20;61.80;;;27.88;;
59786;SDS011;45672;51.612;5.536;2023-03-09T04:13:46;61.30;;;27.88;;
59786;SDS011;45672;51.612;5.536;2023-03-09T04:16:13;69.55;;;30.95;;
59786;SDS011;45672;51.612;5.536;2023-03-09T04:18:39;59.85;;;28.13;;
59786;SDS011;45672;51.612;5.536;2023-03-09T04:21:04;66.97;;;29.85;;
59786;SDS011;45672;51.612;5.536;2023-03-09T04:23:29;70.97;;;30.67;;
59786;SDS011;45672;51.612;5.536;2023-03-09T04:25:59;67.57;;;30.55;;
59786;SDS011;45672;51.612;5.536;2023-03-09T04:28:25;64.25;;;29.10;;
59786;SDS011;45672;51.612;5.536;2023-03-09T04:30:51;75.93;;;32.90;;
59786;SDS011;45672;51.612;5.536;2023-03-09T04:33:18;73.93;;;33.22;;
59786;SDS011;45672;51.612;5.536;2023-03-09T04:35:44;70.38;;;31.33;;
59786;SDS011;45672;51.612;5.536;2023-03-09T04:38:10;67.82;;;30.15;;
59786;SDS011;45672;51.612;5.536;2023-03-09T04:40:36;71.45;;;31.33;;
59786;SDS011;45672;51.612;5.536;2023-03-09T04:43:02;71.68;;;33.42;;
59786;SDS011;45672;51.612;5.536;2023-03-09T04:45:28;76.95;;;34.20;;
59786;SDS011;45672;51.612;5.536;2023-03-09T04:47:53;77.53;;;34.35;;
59786;SDS011;45672;51.612;5.536;2023-03-09T04:50:19;71.72;;;31.33;;
59786;SDS011;45672;51.612;5.536;2023-03-09T04:52:44;74.22;;;32.97;;
59786;SDS011;45672;51.612;5.536;2023-03-09T04:55:09;78.88;;;32.38;;
59786;SDS011;45672;51.612;5.536;2023-03-09T04:57:35;70.55;;;30.80;;
59786;SDS011;45672;51.612;5.536;2023-03-09T05:00:00;70.10;;;31.10;;
59786;SDS011;45672;51.612;5.536;2023-03-09T05:02:27;70.07;;;31.17;;
59786;SDS011;45672;51.612;5.536;2023-03-09T05:04:53;72.07;;;32.80;;
59786;SDS011;45672;51.612;5.536;2023-03-09T05:07:19;65.43;;;29.90;;
59786;SDS011;45672;51.612;5.536;2023-03-09T05:09:45;70.18;;;30.17;;
59786;SDS011;45672;51.612;5.536;2023-03-09T05:12:10;65.20;;;30.95;;
59786;SDS011;45672;51.612;5.536;2023-03-09T05:14:35;76.05;;;30.98;;
59786;SDS011;45672;51.612;5.536;2023-03-09T05:17:01;64.50;;;27.27;;
59786;SDS011;45672;51.612;5.536;2023-03-09T05:19:26;52.30;;;24.77;;
59786;SDS011;45672;51.612;5.536;2023-03-09T05:21:51;69.80;;;30.42;;
59786;SDS011;45672;51.612;5.536;2023-03-09T05:24:17;72.45;;;30.42;;
59786;SDS011;45672;51.612;5.536;2023-03-09T05:26:42;56.22;;;26.30;;
59786;SDS011;45672;51.612;5.536;2023-03-09T05:29:07;72.75;;;30.83;;
59786;SDS011;45672;51.612;5.536;2023-03-09T05:31:33;64.35;;;29.65;;
59786;SDS011;45672;51.612;5.536;2023-03-09T05:33:58;57.47;;;26.48;;
59786;SDS011;45672;51.612;5.536;2023-03-09T05:36:24;65.93;;;28.90;;
59786;SDS011;45672;51.612;5.536;2023-03-09T05:38:51;58.53;;;26.95;;
59786;SDS011;45672;51.612;5.536;2023-03-09T05:41:17;65.35;;;28.42;;
59786;SDS011;45672;51.612;5.536;2023-03-09T05:43:43;68.55;;;28.67;;
59786;SDS011;45672;51.612;5.536;2023-03-09T05:46:13;65.45;;;27.60;;
59786;SDS011;45672;51.612;5.536;2023-03-09T05:48:40;66.90;;;27.58;;
59786;SDS011;45672;51.612;5.536;2023-03-09T05:51:06;63.35;;;27.10;;
59786;SDS011;45672;51.612;5.536;2023-03-09T05:53:35;65.75;;;28.70;;
59786;SDS011;45672;51.612;5.536;2023-03-09T05:56:01;67.68;;;28.42;;
59786;SDS011;45672;51.612;5.536;2023-03-09T05:58:28;67.38;;;28.55;;
59786;SDS011;45672;51.612;5.536;2023-03-09T06:00:54;69.93;;;29.30;;
59786;SDS011;45672;51.612;5.536;2023-03-09T06:03:21;67.47;;;28.25;;
59786;SDS011;45672;51.612;5.536;2023-03-09T06:05:47;66.47;;;27.95;;
59786;SDS011;45672;51.612;5.536;2023-03-09T06:08:13;66.38;;;28.15;;
59786;SDS011;45672;51.612;5.536;2023-03-09T06:10:39;63.55;;;28.75;;
59786;SDS011;45672;51.612;5.536;2023-03-09T06:13:04;66.22;;;27.50;;
59786;SDS011;45672;51.612;5.536;2023-03-09T06:15:29;66.80;;;27.83;;
59786;SDS011;45672;51.612;5.536;2023-03-09T06:17:55;63.35;;;27.50;;
59786;SDS011;45672;51.612;5.536;2023-03-09T06:20:20;64.47;;;28.23;;
59786;SDS011;45672;51.612;5.536;2023-03-09T06:22:46;60.67;;;27.52;;
59786;SDS011;45672;51.612;5.536;2023-03-09T06:25:11;64.15;;;27.33;;
59786;SDS011;45672;51.612;5.536;2023-03-09T06:27:37;60.15;;;26.55;;
59786;SDS011;45672;51.612;5.536;2023-03-09T06:30:03;65.97;;;27.25;;
59786;SDS011;45672;51.612;5.536;2023-03-09T06:32:31;65.18;;;27.40;;
59786;SDS011;45672;51.612;5.536;2023-03-09T06:34:58;68.30;;;27.45;;
59786;SDS011;45672;51.612;5.536;2023-03-09T06:37:23;62.17;;;26.55;;
59786;SDS011;45672;51.612;5.536;2023-03-09T06:39:49;61.30;;;26.60;;
59786;SDS011;45672;51.612;5.536;2023-03-09T06:42:14;64.15;;;27.00;;
59786;SDS011;45672;51.612;5.536;2023-03-09T06:44:39;61.03;;;26.23;;
59786;SDS011;45672;51.612;5.536;2023-03-09T06:47:05;60.63;;;26.23;;
59786;SDS011;45672;51.612;5.536;2023-03-09T06:49:30;63.03;;;27.02;;
59786;SDS011;45672;51.612;5.536;2023-03-09T06:51:55;60.05;;;26.45;;
59786;SDS011;45672;51.612;5.536;2023-03-09T06:54:22;57.95;;;25.80;;
59786;SDS011;45672;51.612;5.536;2023-03-09T06:56:47;66.07;;;27.10;;
59786;SDS011;45672;51.612;5.536;2023-03-09T06:59:13;61.35;;;26.77;;
59786;SDS011;45672;51.612;5.536;2023-03-09T07:01:39;62.15;;;26.92;;
59786;SDS011;45672;51.612;5.536;2023-03-09T07:04:05;60.95;;;25.73;;
59786;SDS011;45672;51.612;5.536;2023-03-09T07:06:31;61.38;;;26.42;;
59786;SDS011;45672;51.612;5.536;2023-03-09T07:08:56;67.07;;;26.48;;
59786;SDS011;45672;51.612;5.536;2023-03-09T07:11:22;66.03;;;26.98;;
59786;SDS011;45672;51.612;5.536;2023-03-09T07:13:47;64.63;;;26.67;;
59786;SDS011;45672;51.612;5.536;2023-03-09T07:16:13;68.78;;;26.08;;
59786;SDS011;45672;51.612;5.536;2023-03-09T07:18:38;65.78;;;26.83;;
59786;SDS011;45672;51.612;5.536;2023-03-09T07:21:03;60.03;;;26.63;;
59786;SDS011;45672;51.612;5.536;2023-03-09T07:23:29;59.63;;;24.52;;
59786;SDS011;45672;51.612;5.536;2023-03-09T07:26:00;70.43;;;28.10;;
59786;SDS011;45672;51.612;5.536;2023-03-09T07:28:26;63.55;;;26.25;;
59786;SDS011;45672;51.612;5.536;2023-03-09T07:30:52;61.40;;;26.13;;
59786;SDS011;45672;51.612;5.536;2023-03-09T07:33:17;55.65;;;23.05;;
59786;SDS011;45672;51.612;5.536;2023-03-09T07:35:42;58.03;;;25.30;;
59786;SDS011;45672;51.612;5.536;2023-03-09T07:38:08;64.05;;;26.63;;
59786;SDS011;45672;51.612;5.536;2023-03-09T07:40:33;59.15;;;25.27;;
59786;SDS011;45672;51.612;5.536;2023-03-09T07:42:59;59.72;;;26.17;;
59786;SDS011;45672;51.612;5.536;2023-03-09T07:45:24;57.90;;;25.65;;
59786;SDS011;45672;51.612;5.536;2023-03-09T07:47:49;62.72;;;26.38;;
59786;SDS011;45672;51.612;5.536;2023-03-09T07:50:15;61.30;;;24.52;;
59786;SDS011;45672;51.612;5.536;2023-03-09T07:52:41;57.33;;;25.33;;
59786;SDS011;45672;51.612;5.536;2023-03-09T07:55:08;63.22;;;25.95;;
59786;SDS011;45672;51.612;5.536;2023-03-09T07:57:35;56.10;;;24.15;;
59786;SDS011;45672;51.612;5.536;2023-03-09T08:00:01;59.88;;;26.20;;
59786;SDS011;45672;51.612;5.536;2023-03-09T08:02:31;62.80;;;23.98;;
59786;SDS011;45672;51.612;5.536;2023-03-09T08:04:56;63.75;;;26.52;;
59786;SDS011;45672;51.612;5.536;2023-03-09T08:07:21;61.28;;;24.83;;
59786;SDS011;45672;51.612;5.536;2023-03-09T08:09:47;64.55;;;25.90;;
59786;SDS011;45672;51.612;5.536;2023-03-09T08:12:12;62.63;;;26.25;;
59786;SDS011;45672;51.612;5.536;2023-03-09T08:14:37;66.35;;;26.98;;
59786;SDS011;45672;51.612;5.536;2023-03-09T08:17:03;58.72;;;26.25;;
59786;SDS011;45672;51.612;5.536;2023-03-09T08:19:29;62.22;;;27.25;;
59786;SDS011;45672;51.612;5.536;2023-03-09T08:21:55;63.78;;;26.63;;
59786;SDS011;45672;51.612;5.536;2023-03-09T08:24:21;62.88;;;26.20;;
59786;SDS011;45672;51.612;5.536;2023-03-09T08:26:47;62.03;;;25.45;;
59786;SDS011;45672;51.612;5.536;2023-03-09T08:29:12;70.55;;;28.15;;
59786;SDS011;45672;51.612;5.536;2023-03-09T08:31:38;62.13;;;26.60;;
59786;SDS011;45672;51.612;5.536;2023-03-09T08:34:03;60.35;;;24.85;;
59786;SDS011;45672;51.612;5.536;2023-03-09T08:36:29;56.63;;;25.73;;
59786;SDS011;45672;51.612;5.536;2023-03-09T08:38:55;64.50;;;26.00;;
59786;SDS011;45672;51.612;5.536;2023-03-09T08:41:20;63.13;;;26.48;;
59786;SDS011;45672;51.612;5.536;2023-03-09T08:43:47;65.07;;;27.15;;
59786;SDS011;45672;51.612;5.536;2023-03-09T08:46:12;62.55;;;27.00;;
59786;SDS011;45672;51.612;5.536;2023-03-09T08:48:38;63.67;;;26.63;;
59786;SDS011;45672;51.612;5.536;2023-03-09T08:51:05;70.07;;;27.17;;
59786;SDS011;45672;51.612;5.536;2023-03-09T08:53:35;60.65;;;26.50;;
59786;SDS011;45672;51.612;5.536;2023-03-09T08:56:04;55.60;;;26.13;;
59786;SDS011;45672;51.612;5.536;2023-03-09T08:58:31;64.68;;;26.65;;
59786;SDS011;45672;51.612;5.536;2023-03-09T09:00:57;64.22;;;26.63;;
59786;SDS011;45672;51.612;5.536;2023-03-09T09:03:25;62.90;;;25.80;;
59786;SDS011;45672;51.612;5.536;2023-03-09T09:05:50;59.22;;;26.25;;
59786;SDS011;45672;51.612;5.536;2023-03-09T09:08:16;62.13;;;25.85;;
59786;SDS011;45672;51.612;5.536;2023-03-09T09:10:41;53.55;;;24.83;;
59786;SDS011;45672;51.612;5.536;2023-03-09T09:13:10;62.97;;;26.25;;
59786;SDS011;45672;51.612;5.536;2023-03-09T09:15:36;58.83;;;26.70;;
59786;SDS011;45672;51.612;5.536;2023-03-09T09:18:04;62.60;;;27.33;;
59786;SDS011;45672;51.612;5.536;2023-03-09T09:20:30;61.40;;;26.48;;
59786;SDS011;45672;51.612;5.536;2023-03-09T09:22:55;61.67;;;27.40;;
59786;SDS011;45672;51.612;5.536;2023-03-09T09:25:20;59.33;;;27.23;;
59786;SDS011;45672;51.612;5.536;2023-03-09T09:27:48;58.92;;;27.65;;
59786;SDS011;45672;51.612;5.536;2023-03-09T09:30:15;58.97;;;27.15;;
59786;SDS011;45672;51.612;5.536;2023-03-09T09:32:40;57.15;;;26.02;;
59786;SDS011;45672;51.612;5.536;2023-03-09T09:35:06;56.05;;;26.45;;
59786;SDS011;45672;51.612;5.536;2023-03-09T09:37:32;58.25;;;25.67;;
59786;SDS011;45672;51.612;5.536;2023-03-09T09:39:58;58.67;;;26.02;;
59786;SDS011;45672;51.612;5.536;2023-03-09T09:42:28;61.10;;;25.20;;
59786;SDS011;45672;51.612;5.536;2023-03-09T09:44:58;54.92;;;24.45;;
59786;SDS011;45672;51.612;5.536;2023-03-09T09:47:28;58.10;;;26.23;;
59786;SDS011;45672;51.612;5.536;2023-03-09T09:49:57;59.70;;;25.02;;
59786;SDS011;45672;51.612;5.536;2023-03-09T09:57:42;56.05;;;25.95;;
59786;SDS011;45672;51.612;5.536;2023-03-09T10:13:50;57.72;;;26.77;;
59786;SDS011;45672;51.612;5.536;2023-03-09T10:16:22;59.43;;;25.93;;
59786;SDS011;45672;51.612;5.536;2023-03-09T10:18:55;57.60;;;25.73;;
59786;SDS011;45672;51.612;5.536;2023-03-09T10:21:25;56.67;;;24.60;;
59786;SDS011;45672;51.612;5.536;2023-03-09T10:23:57;53.50;;;24.58;;
59786;SDS011;45672;51.612;5.536;2023-03-09T10:26:41;59.45;;;26.23;;
59786;SDS011;45672;51.612;5.536;2023-03-09T10:29:17;57.65;;;26.20;;
59786;SDS011;45672;51.612;5.536;2023-03-09T10:31:50;61.25;;;26.45;;
59786;SDS011;45672;51.612;5.536;2023-03-09T10:34:24;56.25;;;25.13;;
59786;SDS011;45672;51.612;5.536;2023-03-09T10:36:58;56.08;;;25.42;;
59786;SDS011;45672;51.612;5.536;2023-03-09T10:39:27;57.33;;;25.10;;
59786;SDS011;45672;51.612;5.536;2023-03-09T10:41:58;60.20;;;26.30;;
59786;SDS011;45672;51.612;5.536;2023-03-09T10:44:36;55.40;;;25.55;;
59786;SDS011;45672;51.612;5.536;2023-03-09T10:47:02;57.65;;;26.58;;
59786;SDS011;45672;51.612;5.536;2023-03-09T10:49:27;61.75;;;28.00;;
59786;SDS011;45672;51.612;5.536;2023-03-09T10:51:54;58.50;;;27.17;;
59786;SDS011;45672;51.612;5.536;2023-03-09T10:54:25;49.30;;;23.83;;
59786;SDS011;45672;51.612;5.536;2023-03-09T10:56:55;51.30;;;25.20;;
59786;SDS011;45672;51.612;5.536;2023-03-09T10:59:21;52.28;;;24.30;;
59786;SDS011;45672;51.612;5.536;2023-03-09T11:01:48;53.15;;;24.52;;
59786;SDS011;45672;51.612;5.536;2023-03-09T11:06:51;50.50;;;24.88;;
59786;SDS011;45672;51.612;5.536;2023-03-09T11:09:19;54.53;;;24.80;;
59786;SDS011;45672;51.612;5.536;2023-03-09T11:11:48;49.33;;;24.23;;
59786;SDS011;45672;51.612;5.536;2023-03-09T11:14:29;55.65;;;26.00;;
59786;SDS011;45672;51.612;5.536;2023-03-09T11:16:56;54.40;;;25.55;;
59786;SDS011;45672;51.612;5.536;2023-03-09T11:19:24;52.05;;;25.27;;
59786;SDS011;45672;51.612;5.536;2023-03-09T11:24:21;51.45;;;24.58;;
59786;SDS011;45672;51.612;5.536;2023-03-09T11:29:27;48.92;;;24.17;;
59786;SDS011;45672;51.612;5.536;2023-03-09T11:32:00;53.35;;;23.77;;
59786;SDS011;45672;51.612;5.536;2023-03-09T11:34:35;55.47;;;25.15;;
59786;SDS011;45672;51.612;5.536;2023-03-09T11:37:07;50.90;;;24.23;;
59786;SDS011;45672;51.612;5.536;2023-03-09T11:45:12;48.85;;;22.90;;
59786;SDS011;45672;51.612;5.536;2023-03-09T11:47:55;50.90;;;23.90;;
59786;SDS011;45672;51.612;5.536;2023-03-09T11:52:53;51.75;;;22.92;;
59786;SDS011;45672;51.612;5.536;2023-03-09T11:55:33;57.50;;;25.55;;
59786;SDS011;45672;51.612;5.536;2023-03-09T11:58:03;57.30;;;23.85;;
59786;SDS011;45672;51.612;5.536;2023-03-09T12:00:35;58.40;;;26.50;;
59786;SDS011;45672;51.612;5.536;2023-03-09T12:03:10;59.90;;;26.48;;
59786;SDS011;45672;51.612;5.536;2023-03-09T12:05:47;54.13;;;25.40;;
59786;SDS011;45672;51.612;5.536;2023-03-09T12:08:36;57.70;;;26.85;;
59786;SDS011;45672;51.612;5.536;2023-03-09T12:11:13;56.22;;;26.65;;
59786;SDS011;45672;51.612;5.536;2023-03-09T12:13:51;55.08;;;23.52;;
59786;SDS011;45672;51.612;5.536;2023-03-09T12:16:23;53.75;;;25.25;;
59786;SDS011;45672;51.612;5.536;2023-03-09T12:21:58;62.67;;;26.95;;
59786;SDS011;45672;51.612;5.536;2023-03-09T12:24:40;60.05;;;25.83;;
59786;SDS011;45672;51.612;5.536;2023-03-09T12:29:49;57.45;;;25.35;;
59786;SDS011;45672;51.612;5.536;2023-03-09T12:34:55;60.33;;;25.55;;
59786;SDS011;45672;51.612;5.536;2023-03-09T12:40:00;62.50;;;27.30;;
59786;SDS011;45672;51.612;5.536;2023-03-09T12:42:50;58.15;;;26.17;;
59786;SDS011;45672;51.612;5.536;2023-03-09T12:50:23;49.50;;;22.35;;
59786;SDS011;45672;51.612;5.536;2023-03-09T12:55:50;38.28;;;18.50;;
59786;SDS011;45672;51.612;5.536;2023-03-09T13:06:34;55.13;;;23.60;;
59786;SDS011;45672;51.612;5.536;2023-03-09T13:29:48;46.85;;;21.05;;
59786;SDS011;45672;51.612;5.536;2023-03-09T13:34:47;45.70;;;21.30;;
59786;SDS011;45672;51.612;5.536;2023-03-09T13:37:15;53.65;;;22.23;;
59786;SDS011;45672;51.612;5.536;2023-03-09T13:40:02;44.00;;;19.17;;
59786;SDS011;45672;51.612;5.536;2023-03-09T13:42:29;54.78;;;21.80;;
59786;SDS011;45672;51.612;5.536;2023-03-09T13:44:57;49.42;;;20.65;;
59786;SDS011;45672;51.612;5.536;2023-03-09T13:47:24;50.38;;;21.27;;
59786;SDS011;45672;51.612;5.536;2023-03-09T13:49:52;54.08;;;21.58;;
59786;SDS011;45672;51.612;5.536;2023-03-09T13:52:19;50.15;;;20.00;;
59786;SDS011;45672;51.612;5.536;2023-03-09T13:57:34;45.63;;;18.13;;
59786;SDS011;45672;51.612;5.536;2023-03-09T14:00:20;52.00;;;20.95;;
59786;SDS011;45672;51.612;5.536;2023-03-09T14:02:51;52.85;;;21.80;;
59786;SDS011;45672;51.612;5.536;2023-03-09T14:05:18;55.33;;;21.13;;
59786;SDS011;45672;51.612;5.536;2023-03-09T14:07:55;51.80;;;20.90;;
59786;SDS011;45672;51.612;5.536;2023-03-09T14:10:24;51.35;;;20.73;;
59786;SDS011;45672;51.612;5.536;2023-03-09T14:13:06;57.90;;;21.90;;
59786;SDS011;45672;51.612;5.536;2023-03-09T14:15:41;51.75;;;22.20;;
59786;SDS011;45672;51.612;5.536;2023-03-09T14:18:25;55.42;;;21.92;;
59786;SDS011;45672;51.612;5.536;2023-03-09T14:20:54;51.80;;;22.33;;
59786;SDS011;45672;51.612;5.536;2023-03-09T14:25:50;50.30;;;19.65;;
59786;SDS011;45672;51.612;5.536;2023-03-09T14:28:26;55.05;;;22.40;;
59786;SDS011;45672;51.612;5.536;2023-03-09T14:30:53;57.95;;;22.63;;
59786;SDS011;45672;51.612;5.536;2023-03-09T14:33:28;54.50;;;20.95;;
59786;SDS011;45672;51.612;5.536;2023-03-09T14:36:05;55.67;;;21.75;;
59786;SDS011;45672;51.612;5.536;2023-03-09T14:38:40;58.80;;;22.67;;
59786;SDS011;45672;51.612;5.536;2023-03-09T14:41:20;57.60;;;22.38;;
59786;SDS011;45672;51.612;5.536;2023-03-09T14:43:47;56.10;;;22.60;;
59786;SDS011;45672;51.612;5.536;2023-03-09T14:48:53;51.90;;;21.25;;
59786;SDS011;45672;51.612;5.536;2023-03-09T14:51:24;59.60;;;21.98;;
59786;SDS011;45672;51.612;5.536;2023-03-09T14:53:57;55.70;;;22.27;;
59786;SDS011;45672;51.612;5.536;2023-03-09T14:56:37;53.50;;;21.98;;
59786;SDS011;45672;51.612;5.536;2023-03-09T14:59:09;55.30;;;21.50;;
59786;SDS011;45672;51.612;5.536;2023-03-09T15:01:37;51.67;;;21.83;;
59786;SDS011;45672;51.612;5.536;2023-03-09T15:04:05;56.25;;;21.80;;
59786;SDS011;45672;51.612;5.536;2023-03-09T15:06:36;45.35;;;19.08;;
59786;SDS011;45672;51.612;5.536;2023-03-09T15:09:03;37.47;;;17.63;;
59786;SDS011;45672;51.612;5.536;2023-03-09T15:11:29;47.88;;;19.75;;
59786;SDS011;45672;51.612;5.536;2023-03-09T15:13:55;48.55;;;19.77;;
59786;SDS011;45672;51.612;5.536;2023-03-09T15:16:20;50.75;;;20.50;;
59786;SDS011;45672;51.612;5.536;2023-03-09T15:18:45;44.45;;;19.05;;
59786;SDS011;45672;51.612;5.536;2023-03-09T15:21:11;52.42;;;19.75;;
59786;SDS011;45672;51.612;5.536;2023-03-09T15:23:36;50.33;;;20.33;;
59786;SDS011;45672;51.612;5.536;2023-03-09T15:26:02;42.97;;;17.70;;
59786;SDS011;45672;51.612;5.536;2023-03-09T15:28:28;50.05;;;19.42;;
59786;SDS011;45672;51.612;5.536;2023-03-09T15:30:54;44.53;;;19.30;;
59786;SDS011;45672;51.612;5.536;2023-03-09T15:33:19;41.83;;;17.95;;
59786;SDS011;45672;51.612;5.536;2023-03-09T15:35:44;49.30;;;20.70;;
59786;SDS011;45672;51.612;5.536;2023-03-09T15:38:10;52.50;;;20.35;;
59786;SDS011;45672;51.612;5.536;2023-03-09T15:40:35;56.42;;;20.60;;
59786;SDS011;45672;51.612;5.536;2023-03-09T15:43:00;51.78;;;20.95;;
59786;SDS011;45672;51.612;5.536;2023-03-09T15:45:26;52.97;;;21.55;;
59786;SDS011;45672;51.612;5.536;2023-03-09T15:47:51;48.58;;;19.40;;
59786;SDS011;45672;51.612;5.536;2023-03-09T15:50:18;48.90;;;19.17;;
59786;SDS011;45672;51.612;5.536;2023-03-09T15:52:44;51.38;;;19.08;;
59786;SDS011;45672;51.612;5.536;2023-03-09T15:55:09;46.45;;;18.88;;
59786;SDS011;45672;51.612;5.536;2023-03-09T15:57:35;52.22;;;18.85;;
59786;SDS011;45672;51.612;5.536;2023-03-09T16:00:01;49.78;;;19.27;;
59786;SDS011;45672;51.612;5.536;2023-03-09T16:02:28;46.10;;;19.27;;
59786;SDS011;45672;51.612;5.536;2023-03-09T16:04:53;50.10;;;19.38;;